Riverton, Wyoming
Current Conditions -  °F | °C
As of 12:03 AM on Friday 19 Dec 2014 (Local Time) from KRIW Reporting Station
Moderate Fog Moderate Fog  
Wind Chill: -19°   Ceiling: 100
Heat Index: -13°   Visibility: 0.25mi
Dew Point: -16°   Wind: 6mph
Humidity: 83%   Direction: 320°NW
Pressure: 30.08"   Gusts: NA
Location:  43.02°N, 108.38°W
Report Text: KRIW 190703Z AUTO 32005KT 1/4SM FZFG VV001 M13/M16 A3008 RMK AO2 T11331156
Loading
Personal Weather Stations






























Interactive Weather Map New forecast layout! Learn more

10-Day Weather Forecast

Advertisements
Track Severe Weather on mobile